Indian Shores, Florida
Current Conditions -  °F | °C
As of 3:55 PM on Tuesday 27 Jan 2015 (Local Time) from KCLW Reporting Station
Clear Clear  
Wind Chill: 63°   Ceiling: Unl
Heat Index: 63°   Visibility: 10mi
Dew Point: 52°   Wind: 8mph
Humidity: 68%   Direction: 250°WSW
Pressure: 29.98"   Gusts: NA
Location:  27.8852°N, 82.845°W
Report Text: KCLW 272055Z AUTO 25007KT 10SM CLR 17/11 A2998 RMK AO2
Loading
Personal Weather Stations






























Interactive Weather Map New forecast layout! Learn more

10-Day Weather Forecast

Advertisements
Track Severe Weather on mobile